Latest Weather Observations for Coober Pedy Airport

IDS60801

Issued at 8:51 am CST Monday 19 August 2019 (issued every 10 minutes, with the page automatically refreshed every 10 minutes)

About weather observations | Map of weather stations | Latest weather observations for SA | Other Formats
Station Details ID: 016090 Name: COOBER PEDY AIRPORT Lat: -29.03 Lon: 134.72 Height: 225.0 m
Data from the previous 72 hours. | See also: Recent months at Coober Pedy Airport
Date/Time
CST
Temp
°C
App
Temp
°C
Dew
Point
°C
Rel
Hum
%
Delta-T
°C
Wind Press
QNH
hPa
Press
MSL
hPa
Rain since
9am
mm
Dir  Spd
km/h
Gust
km/h
Spd
kts
Gust
kts
19/08:30am 6.3 - - - - SW 19 22 10 12 1033.0 1032.9 0.0
19/08:00am 4.8 - - - - WSW 13 17 7 9 1032.5 1032.4 0.0
19/07:30am 3.3 - - - - WSW 15 15 8 8 1031.9 1031.8 0.0
19/07:00am 2.9 - - - - WSW 15 17 8 9 1031.4 1031.3 0.0
19/06:30am 3.3 - - - - WSW 13 17 7 9 1030.7 1030.7 0.0
19/06:00am 3.8 - - - - SW 17 19 9 10 1030.2 1030.1 0.0
19/05:30am 4.1 - - - - SW 19 20 10 11 1029.8 1029.7 0.0
19/05:00am 4.2 - - - - SW 17 20 9 11 1029.6 1029.5 0.0
19/04:30am 4.3 - - - - WSW 15 17 8 9 1029.5 1029.4 0.0
19/04:00am 4.1 - - - - WSW 15 17 8 9 1029.2 1029.1 0.0
19/03:30am 4.8 - - - - WSW 15 17 8 9 1029.2 1029.1 0.0
19/03:00am 5.3 - - - - SW 17 20 9 11 1029.1 1029.0 0.0
19/02:30am 5.4 - - - - WSW 15 17 8 9 1029.0 1028.9 0.0
19/02:00am 6.1 - - - - SW 17 19 9 10 1029.0 1028.9 0.0
19/01:30am 6.4 - - - - SW 15 19 8 10 1029.1 1029.0 0.0
19/01:00am 7.2 - - - - SW 19 24 10 13 1029.0 1028.9 0.0
19/12:30am 7.8 - - - - SW 20 26 11 14 1028.9 1028.8 0.0
19/12:00am 8.1 - - - - SSW 22 28 12 15 1028.6 1028.5 0.0
 
Date/Time
CST
Temp
°C
App
Temp
°C
Dew
Point
°C
Rel
Hum
%
Delta-T
°C
Wind Press
QNH
hPa
Press
MSL
hPa
Rain since
9am
mm
Dir  Spd
km/h
Gust
km/h
Spd
kts
Gust
kts
18/11:30pm 8.6 - - - - SSW 24 30 13 16 1028.4 1028.3 0.0
18/11:00pm 9.0 - - - - SSW 32 41 17 22 1028.1 1028.0 0.0
18/10:30pm 9.6 - - - - SSW 32 39 17 21 1027.8 1027.7 0.0
18/10:00pm 9.9 - - - - SSW 33 43 18 23 1027.4 1027.3 0.0
18/09:30pm 10.3 - - - - SSW 30 41 16 22 1027.1 1027.0 0.0
18/09:00pm 10.7 - - - - SSW 33 41 18 22 1026.5 1026.4 0.0
18/08:30pm 11.4 - - - - SSW 37 46 20 25 1025.9 1025.8 0.0
18/08:00pm 11.9 - - - - SSW 33 44 18 24 1025.6 1025.5 0.0
18/07:30pm 12.2 - - - - SSW 39 48 21 26 1024.9 1024.8 0.0
18/07:13pm 12.8 - - - - SW 35 56 19 30 1024.5 1024.4 0.0
18/07:00pm 13.0 - - - - SW 41 57 22 31 1024.3 1024.2 0.0
18/06:30pm 13.6 - - - - SW 43 56 23 30 1023.8 1023.7 0.0
18/06:09pm 14.1 - - - - SW 44 63 24 34 1023.2 1023.1 0.0
18/06:00pm 14.3 - - - - SW 43 56 23 30 1023.1 1023.0 0.0
18/05:30pm 15.0 - - - - SW 50 63 27 34 1022.4 1022.2 0.0
18/05:00pm 16.0 - - - - SW 48 65 26 35 1021.6 1021.5 0.0
18/04:37pm 16.4 - - - - SW 50 63 27 34 1021.1 1021.0 0.0
18/04:30pm 16.3 - - - - WSW 46 61 25 33 1021.0 1020.9 0.0
18/04:17pm 16.6 - - - - WSW 52 72 28 39 1020.9 1020.8 0.0
18/04:15pm 16.5 - - - - WSW 50 70 27 38 1020.7 1020.6 0.0
18/04:07pm 16.3 - - - - SW 46 61 25 33 1020.8 1020.7 0.0
18/04:00pm 16.8 - - - - SW 48 65 26 35 1020.7 1020.6 0.0
18/03:30pm 17.1 - - - - WSW 52 70 28 38 1020.3 1020.2 0.0
18/03:27pm 16.7 - - - - WSW 52 69 28 37 1020.4 1020.3 0.0
18/03:24pm 17.0 - - - - WSW 48 67 26 36 1020.2 1020.1 0.0
18/03:04pm 16.8 - - - - WSW 50 65 27 35 1020.3 1020.2 0.0
18/03:00pm 17.1 - - - - WSW 46 63 25 34 1020.3 1020.2 0.0
18/02:30pm 17.4 - - - - WSW 46 67 25 36 1020.4 1020.3 0.0
18/02:28pm 17.1 - - - - WSW 48 67 26 36 1020.4 1020.3 0.0
18/02:13pm 17.6 - - - - WSW 48 65 26 35 1020.3 1020.2 0.0
18/02:10pm 17.3 - - - - WSW 46 61 25 33 1020.3 1020.2 0.0
18/02:00pm 17.1 - - - - WSW 46 57 25 31 1020.4 1020.3 0.0
18/01:40pm 16.5 - - - - WSW 46 63 25 34 1020.6 1020.5 0.0
18/01:37pm 17.1 - - - - WSW 43 63 23 34 1020.6 1020.5 0.0
18/01:30pm 16.5 - - - - WSW 44 59 24 32 1020.7 1020.6 0.0
18/01:00pm 16.4 - - - - WSW 43 67 23 36 1021.0 1020.9 0.0
18/12:56pm 16.7 - - - - WSW 43 67 23 36 1020.9 1020.8 0.0
18/12:30pm 15.6 - - - - WSW 44 59 24 32 1021.3 1021.2 0.0
18/12:25pm 15.7 - - - - WSW 41 59 22 32 1021.3 1021.2 0.0
18/12:00pm 15.0 - - - - WSW 44 54 24 29 1021.7 1021.6 0.0
18/11:35am 14.8 - - - - WSW 39 57 21 31 1021.8 1021.7 0.0
18/11:30am 14.9 - - - - WSW 41 52 22 28 1021.9 1021.8 0.0
18/11:00am 14.3 - - - - WSW 37 52 20 28 1022.3 1022.1 0.0
18/10:30am 12.9 - - - - WSW 37 48 20 26 1022.4 1022.2 0.0
18/10:00am 11.9 - - - - WSW 37 48 20 26 1022.5 1022.3 0.0
18/09:30am 11.3 - - - - WSW 35 46 19 25 1022.3 1022.1 0.0
18/09:00am 10.6 - - - - WSW 33 44 18 24 1021.9 1021.8 0.0
18/08:30am 9.8 - - - - WSW 30 43 16 23 1021.5 1021.4 0.0
18/08:00am 9.3 - - - - WSW 26 33 14 18 1021.3 1021.2 0.0
18/07:30am 8.8 - - - - WSW 28 37 15 20 1021.1 1021.0 0.0
18/07:00am 8.8 - - - - WSW 28 35 15 19 1020.7 1020.6 0.0
18/06:30am 9.1 - - - - WSW 26 33 14 18 1020.1 1020.0 0.0
18/06:00am 9.6 - - - - WSW 28 33 15 18 1019.6 1019.5 0.0
18/05:30am 9.9 - - - - WSW 26 33 14 18 1019.1 1018.9 0.0
18/05:00am 10.4 - - - - WSW 26 35 14 19 1018.7 1018.5 0.0
18/04:30am 10.9 - - - - SW 33 43 18 23 1018.4 1018.2 0.0
18/04:00am 11.0 - - - - SW 30 39 16 21 1018.3 1018.1 0.0
18/03:30am 11.6 - - - - SW 37 46 20 25 1017.9 1017.7 0.0
18/03:00am 12.1 - - - - SW 43 57 23 31 1017.5 1017.3 0.0
18/02:30am 12.7 - - - - SW 39 52 21 28 1017.4 1017.2 0.0
18/02:00am 13.3 - - - - SW 43 54 23 29 1016.9 1016.8 0.0
18/01:30am 13.9 - - - - SW 41 52 22 28 1016.8 1016.7 0.0
18/01:00am 14.8 - - - - SW 41 50 22 27 1016.5 1016.4 0.0
18/12:56am 14.9 - - - - SW 43 57 23 31 1016.3 1016.2 0.0
18/12:32am 15.8 - - - - SW 50 63 27 34 1016.0 1015.9 0.0
18/12:30am 16.0 - - - - SW 48 59 26 32 1016.0 1015.9 0.0
18/12:21am 16.5 - - - - WSW 24 50 13 27 1015.7 1015.6 0.0
18/12:00am 16.1 - - - - WSW 17 20 9 11 1015.3 1015.1 0.0
 
Date/Time
CST
Temp
°C
App
Temp
°C
Dew
Point
°C
Rel
Hum
%
Delta-T
°C
Wind Press
QNH
hPa
Press
MSL
hPa
Rain since
9am
mm
Dir  Spd
km/h
Gust
km/h
Spd
kts
Gust
kts
17/11:30pm 17.2 - - - - WSW 20 26 11 14 1015.3 1015.1 0.0
17/11:00pm 18.1 - - - - WSW 26 32 14 17 1015.1 1014.9 0.0
17/10:30pm 18.9 - - - - WSW 30 37 16 20 1014.8 1014.6 0.0
17/10:00pm 18.9 - - - - WSW 24 32 13 17 1014.6 1014.4 0.0
17/09:30pm 19.4 - - - - WSW 22 24 12 13 1014.2 1014.0 0.0
17/09:00pm 20.2 - - - - WSW 24 28 13 15 1014.1 1013.9 0.0
17/08:30pm 20.9 - - - - WSW 26 32 14 17 1013.9 1013.7 0.0
17/08:00pm 21.8 - - - - WSW 30 39 16 21 1013.6 1013.4 0.0
17/07:30pm 22.6 - - - - WSW 28 35 15 19 1013.1 1012.9 0.0
17/07:00pm 24.2 - - - - W 33 43 18 23 1012.3 1012.2 0.0
17/06:30pm 25.0 - - - - WNW 28 35 15 19 1011.7 1011.6 0.0
17/06:00pm 26.2 - - - - WNW 32 41 17 22 1011.3 1011.1 0.0
17/05:30pm 27.6 - - - - WNW 32 43 17 23 1010.9 1010.7 0.0
17/05:00pm 28.3 - - - - NW 37 46 20 25 1010.6 1010.4 0.0
17/04:30pm 29.0 - - - - NNW 35 44 19 24 1010.4 1010.2 0.0
17/04:12pm 29.0 - - - - NNW 32 50 17 27 1010.5 1010.3 0.0
17/04:00pm 29.0 - - - - NNW 35 46 19 25 1010.6 1010.4 0.0
17/03:30pm 29.0 - - - - NNW 33 43 18 23 1010.6 1010.4 0.0
17/03:14pm 29.0 - - - - NNW 37 52 20 28 1010.7 1010.5 0.0
17/03:03pm 28.7 - - - - NNW 39 56 21 30 1011.0 1010.8 0.0
17/03:00pm 28.4 - - - - N 39 56 21 30 1011.0 1010.8 0.0
17/02:56pm 28.6 - - - - NNW 37 56 20 30 1011.0 1010.8 0.0
17/02:30pm 28.9 - - - - NNW 39 50 21 27 1011.6 1011.4 0.0
17/02:00pm 28.3 - - - - NNW 39 54 21 29 1012.2 1012.1 0.0
17/01:30pm 27.2 - - - - N 37 48 20 26 1012.8 1012.6 0.0
17/01:19pm 26.7 - - - - N 39 57 21 31 1013.1 1012.9 0.0
17/01:00pm 26.1 - - - - N 39 54 21 29 1013.5 1013.3 0.0
17/12:30pm 25.0 - - - - NNE 37 52 20 28 1014.2 1014.0 0.0
17/12:00pm 24.8 - - - - NNE 35 43 19 23 1014.8 1014.6 0.0
17/11:30am 23.3 - - - - NNE 35 43 19 23 1015.3 1015.1 0.0
17/11:00am 21.5 - - - - NNE 32 41 17 22 1015.6 1015.5 0.0
17/10:30am 19.6 - - - - NNE 35 43 19 23 1015.9 1015.8 0.0
17/10:00am 18.4 - - - - NE 32 41 17 22 1016.3 1016.2 0.0
17/09:30am 16.2 - - - - NE 32 39 17 21 1016.5 1016.4 0.0
17/09:00am 15.4 - - - - NE 35 43 19 23 1016.5 1016.4 0.0
17/08:30am 14.3 - - - - ENE 32 39 17 21 1016.6 1016.5 0.0
17/08:00am 13.0 - - - - ENE 26 33 14 18 1016.4 1016.3 0.0
17/07:30am 12.4 - - - - ENE 26 32 14 17 1016.4 1016.3 0.0
17/07:00am 12.3 - - - - E 24 30 13 16 1016.1 1016.0 0.0
17/06:30am 12.5 - - - - E 24 30 13 16 1016.1 1016.0 0.0
17/06:00am 12.7 - - - - E 26 32 14 17 1015.9 1015.8 0.0
17/05:30am 13.1 - - - - E 24 30 13 16 1015.9 1015.8 0.0
17/05:00am 13.4 - - - - ESE 22 26 12 14 1016.0 1015.9 0.0
17/04:30am 13.9 - - - - ESE 24 30 13 16 1016.0 1015.9 0.0
17/04:00am 13.7 - - - - ESE 22 30 12 16 1016.3 1016.2 0.0
17/03:30am 13.5 - - - - ESE 19 24 10 13 1016.8 1016.7 0.0
17/03:00am 13.6 - - - - SE 20 24 11 13 1017.1 1017.0 0.0
17/02:30am 13.6 - - - - SE 20 24 11 13 1017.4 1017.2 0.0
17/02:00am 14.0 - - - - SE 22 26 12 14 1017.5 1017.3 0.0
17/01:30am 14.5 - - - - SE 20 28 11 15 1018.3 1018.1 0.0
17/01:00am 14.8 - - - - SSE 17 20 9 11 1019.0 1018.8 0.0
17/12:30am 15.2 - - - - SSE 22 28 12 15 1018.7 1018.5 0.0
17/12:00am 15.2 - - - - SSE 19 24 10 13 1018.8 1018.6 0.0
 
Date/Time
CST
Temp
°C
App
Temp
°C
Dew
Point
°C
Rel
Hum
%
Delta-T
°C
Wind Press
QNH
hPa
Press
MSL
hPa
Rain since
9am
mm
Dir  Spd
km/h
Gust
km/h
Spd
kts
Gust
kts
16/11:30pm 15.4 - - - - S 19 20 10 11 1019.2 1019.0 0.0
16/11:00pm 15.8 - - - - S 22 26 12 14 1019.3 1019.2 0.0
16/10:30pm 16.1 - - - - S 20 24 11 13 1019.7 1019.6 0.0
16/10:00pm 16.4 - - - - S 22 26 12 14 1019.6 1019.5 0.0
16/09:30pm 16.8 - - - - S 20 26 11 14 1019.8 1019.7 0.0
16/09:00pm 17.1 - - - - SSE 24 30 13 16 1019.3 1019.2 0.0
16/08:30pm 17.5 - - - - S 17 20 9 11 1019.9 1019.8 0.0
16/08:00pm 17.8 - - - - SSE 20 26 11 14 1019.6 1019.5 0.0
16/07:30pm 18.0 - - - - SSE 20 24 11 13 1019.3 1019.2 0.0
16/07:00pm 18.2 - - - - SSE 24 30 13 16 1019.0 1018.8 0.0
16/06:30pm 18.6 - - - - S 28 32 15 17 1018.8 1018.6 0.0
16/06:00pm 19.3 - - - - SSE 24 32 13 17 1018.7 1018.5 0.0
16/05:30pm 19.9 - - - - S 28 37 15 20 1018.7 1018.5 0.0
16/05:00pm 20.7 - - - - S 26 32 14 17 1018.4 1018.2 0.0
16/04:30pm 21.8 - - - - S 26 35 14 19 1018.2 1018.0 0.0
16/04:00pm 22.4 - - - - S 26 35 14 19 1018.3 1018.1 0.0
16/03:30pm 22.6 - - - - S 24 32 13 17 1018.3 1018.1 0.0
16/03:00pm 23.1 - - - - S 20 32 11 17 1018.2 1018.0 0.0
16/02:30pm 22.9 - - - - S 20 30 11 16 1018.3 1018.1 0.0
16/02:00pm 22.5 - - - - S 20 30 11 16 1018.6 1018.4 0.0
16/01:30pm 22.3 - - - - S 20 26 11 14 1018.9 1018.7 0.0
16/01:00pm 21.8 - - - - S 22 32 12 17 1019.0 1018.8 0.0
16/12:30pm 21.7 - - - - SSE 24 35 13 19 1019.5 1019.4 0.0
16/12:00pm 22.0 - - - - S 30 43 16 23 1019.8 1019.7 0.0
16/11:30am 22.8 - - - - SSE 19 30 10 16 1019.6 1019.5 0.0
16/11:00am 21.5 - - - - SE 20 30 11 16 1019.7 1019.6 0.0
16/10:30am 20.4 - - - - SE 20 28 11 15 1019.9 1019.8 0.0
16/10:00am 19.3 - - - - SE 24 30 13 16 1019.9 1019.8 0.0
16/09:30am 18.8 - - - - ESE 24 32 13 17 1019.9 1019.8 0.0
16/09:00am 16.4 - - - - ESE 20 28 11 15 1019.8 1019.7 0.0

Other formats

Comma delimited format used in spreadsheet applications
http://www.bom.gov.au/fwo/IDS60801/IDS60801.95458.axf

JavaScript Object Notation format (JSON) in row-major order
http://www.bom.gov.au/fwo/IDS60801/IDS60801.95458.json

Data quality

Most of these data are generated automatically and are frequently updated. Quality checks on data are not normally performed. It is possible for incorrect values to appear. Refer to information at About Latest Weather Observations and please check the disclaimer before using these data.